首页
METAR-TAF:

METAR-TAF

机场 :

Greater Rochester International Airport

羅徹斯特, 紐約州, 美国

纬度: 43-07-00N, 经度: 077-40-36W, 海拔: 170米

当前天气观测

该预报发布于19分钟前的18:54 UTC
风速9节,风向西南
温度 26°C
湿度 74%
气压 1016 hPa
能見度: 16.1公里
少量云层高于4200英尺
散云层高于8000英尺
多云层高于13000英尺
多云层高于20000英尺

METAR: KROC 241854Z 23009KT 10SM FEW042 SCT080 BKN130 BKN200 26/21 A3001 RMK AO2 PK WND 29033/1757 WSHFT 1810 LTG DSNT N RAB1757E31 TSB04E20 SLP163 TS MOVD NE P0000 T02610211

时间: 15:13 (19:13 UTC)

预报

该预报发布于28分钟前的18:45 UTC
预报有效从24日的 19点(UTC)到 25日的 18点(UTC)
风速12节,风向西南,有时为20节阵风
能見度: 10公里
多云层高于8000英尺
附近有阵雨
短暂存在
从 24日的 21点(UTC)到 24日的 23点(UTC)
能見度: 6.4公里
阴天层高于3500英尺, 积雨云.
雷暴, 小雨, 轻雾
从 24日的 2300点(UTC)
风速10节,风向西转西南,有时为17节阵风
能見度: 10公里
多云层高于8000英尺
从 25日的 0400点(UTC)
风速8节,风向西
能見度: 10公里
多云层高于8000英尺
从 25日的 1300点(UTC)
风速11节,风向西,有时为17节阵风
能見度: 10公里
散云层高于20000英尺
从 25日的 1600点(UTC)
风速13节,风向西转西北,有时为21节阵风
能見度: 10公里
散云层高于5000英尺

TAF: KROC 241845Z 2419/2518 23012G20KT P6SM VCSH BKN080 TEMPO 2421/2423 4SM -TSRA BR OVC035CB FM242300 25010G17KT P6SM BKN080 FM250400 27008KT P6SM BKN080 FM251300 28011G17KT P6SM SCT200 FM251600 29013G21KT P6SM SCT050

超过4000个机场的气象观测和天气预报(METAR&TAF报告)。

可查询的气象台以黄色和红色小点在地图上表示。

将鼠标移到小点上方,可查看气象台名称。

然后点击查看天气观测和预报。

如需切换地图:点击带黑十字的绿色按钮放大地图;点击带横线的绿色按钮缩小地图;或者点击绿色箭头查看邻近地区的地图。


METAR-TAF: